sensor_id;sensor_type;location;lat;lon;timestamp;P1;durP1;ratioP1;P2;durP2;ratioP2
34765;SDS011;20984;43.508;1.504;2023-07-29T00:01:30;6.13;;;4.45;;
34765;SDS011;20984;43.508;1.504;2023-07-29T00:03:56;5.38;;;4.25;;
34765;SDS011;20984;43.508;1.504;2023-07-29T00:06:21;10.23;;;5.82;;
34765;SDS011;20984;43.508;1.504;2023-07-29T00:08:47;5.43;;;4.28;;
34765;SDS011;20984;43.508;1.504;2023-07-29T00:11:13;7.55;;;4.78;;
34765;SDS011;20984;43.508;1.504;2023-07-29T00:13:39;4.93;;;4.15;;
34765;SDS011;20984;43.508;1.504;2023-07-29T00:16:04;6.25;;;4.63;;
34765;SDS011;20984;43.508;1.504;2023-07-29T00:18:31;7.53;;;4.85;;
34765;SDS011;20984;43.508;1.504;2023-07-29T00:20:57;7.15;;;5.25;;
34765;SDS011;20984;43.508;1.504;2023-07-29T00:23:22;6.25;;;4.75;;
34765;SDS011;20984;43.508;1.504;2023-07-29T00:25:48;6.20;;;5.05;;
34765;SDS011;20984;43.508;1.504;2023-07-29T00:28:14;6.20;;;4.35;;
34765;SDS011;20984;43.508;1.504;2023-07-29T00:30:40;8.40;;;5.45;;
34765;SDS011;20984;43.508;1.504;2023-07-29T00:33:05;8.43;;;4.72;;
34765;SDS011;20984;43.508;1.504;2023-07-29T00:35:31;5.60;;;4.68;;
34765;SDS011;20984;43.508;1.504;2023-07-29T00:37:57;6.35;;;4.45;;
34765;SDS011;20984;43.508;1.504;2023-07-29T00:40:22;7.28;;;5.05;;
34765;SDS011;20984;43.508;1.504;2023-07-29T00:42:48;6.00;;;5.03;;
34765;SDS011;20984;43.508;1.504;2023-07-29T00:45:15;6.50;;;5.30;;
34765;SDS011;20984;43.508;1.504;2023-07-29T00:47:42;5.55;;;4.95;;
34765;SDS011;20984;43.508;1.504;2023-07-29T00:50:09;6.80;;;5.28;;
34765;SDS011;20984;43.508;1.504;2023-07-29T00:52:36;6.20;;;4.80;;
34765;SDS011;20984;43.508;1.504;2023-07-29T00:55:02;5.55;;;5.05;;
34765;SDS011;20984;43.508;1.504;2023-07-29T00:57:29;7.43;;;5.20;;
34765;SDS011;20984;43.508;1.504;2023-07-29T00:59:55;7.95;;;5.15;;
34765;SDS011;20984;43.508;1.504;2023-07-29T01:02:21;6.18;;;4.78;;
34765;SDS011;20984;43.508;1.504;2023-07-29T01:04:56;7.22;;;4.88;;
34765;SDS011;20984;43.508;1.504;2023-07-29T01:09:51;6.82;;;5.32;;
34765;SDS011;20984;43.508;1.504;2023-07-29T01:18:23;7.95;;;5.43;;
34765;SDS011;20984;43.508;1.504;2023-07-29T01:20:44;6.30;;;5.55;;
34765;SDS011;20984;43.508;1.504;2023-07-29T01:23:12;8.63;;;5.13;;
34765;SDS011;20984;43.508;1.504;2023-07-29T01:25:38;8.18;;;5.65;;
34765;SDS011;20984;43.508;1.504;2023-07-29T01:28:04;6.65;;;5.75;;
34765;SDS011;20984;43.508;1.504;2023-07-29T01:30:33;6.38;;;5.03;;
34765;SDS011;20984;43.508;1.504;2023-07-29T01:33:48;6.00;;;5.25;;
34765;SDS011;20984;43.508;1.504;2023-07-29T01:36:07;8.70;;;5.63;;
34765;SDS011;20984;43.508;1.504;2023-07-29T01:38:40;6.30;;;5.03;;
34765;SDS011;20984;43.508;1.504;2023-07-29T01:41:07;8.23;;;5.18;;
34765;SDS011;20984;43.508;1.504;2023-07-29T01:43:33;6.00;;;4.93;;
34765;SDS011;20984;43.508;1.504;2023-07-29T01:46:06;6.47;;;5.18;;
34765;SDS011;20984;43.508;1.504;2023-07-29T01:48:32;6.20;;;4.90;;
34765;SDS011;20984;43.508;1.504;2023-07-29T01:50:58;6.65;;;5.20;;
34765;SDS011;20984;43.508;1.504;2023-07-29T01:53:23;8.90;;;5.22;;
34765;SDS011;20984;43.508;1.504;2023-07-29T01:55:49;6.07;;;4.85;;
34765;SDS011;20984;43.508;1.504;2023-07-29T01:58:15;5.75;;;4.97;;
34765;SDS011;20984;43.508;1.504;2023-07-29T02:00:40;10.20;;;4.60;;
34765;SDS011;20984;43.508;1.504;2023-07-29T02:03:06;6.72;;;5.60;;
34765;SDS011;20984;43.508;1.504;2023-07-29T02:05:32;7.22;;;5.18;;
34765;SDS011;20984;43.508;1.504;2023-07-29T02:07:57;6.47;;;5.40;;
34765;SDS011;20984;43.508;1.504;2023-07-29T02:10:23;5.68;;;4.93;;
34765;SDS011;20984;43.508;1.504;2023-07-29T02:12:49;7.03;;;5.80;;
34765;SDS011;20984;43.508;1.504;2023-07-29T02:15:14;7.22;;;5.25;;
34765;SDS011;20984;43.508;1.504;2023-07-29T02:17:42;5.72;;;5.10;;
34765;SDS011;20984;43.508;1.504;2023-07-29T02:20:08;6.10;;;5.20;;
34765;SDS011;20984;43.508;1.504;2023-07-29T02:22:35;7.18;;;4.82;;
34765;SDS011;20984;43.508;1.504;2023-07-29T02:25:01;5.43;;;4.93;;
34765;SDS011;20984;43.508;1.504;2023-07-29T02:27:28;5.93;;;4.60;;
34765;SDS011;20984;43.508;1.504;2023-07-29T02:29:53;6.18;;;5.05;;
34765;SDS011;20984;43.508;1.504;2023-07-29T02:32:19;7.07;;;5.28;;
34765;SDS011;20984;43.508;1.504;2023-07-29T02:34:45;6.95;;;5.45;;
34765;SDS011;20984;43.508;1.504;2023-07-29T02:37:11;8.73;;;5.22;;
34765;SDS011;20984;43.508;1.504;2023-07-29T02:39:37;7.20;;;5.00;;
34765;SDS011;20984;43.508;1.504;2023-07-29T02:42:02;5.95;;;5.03;;
34765;SDS011;20984;43.508;1.504;2023-07-29T02:44:28;5.93;;;5.25;;
34765;SDS011;20984;43.508;1.504;2023-07-29T02:46:54;6.80;;;4.80;;
34765;SDS011;20984;43.508;1.504;2023-07-29T02:49:21;6.75;;;5.65;;
34765;SDS011;20984;43.508;1.504;2023-07-29T02:51:49;8.52;;;5.85;;
34765;SDS011;20984;43.508;1.504;2023-07-29T02:54:15;7.80;;;5.65;;
34765;SDS011;20984;43.508;1.504;2023-07-29T02:56:40;6.63;;;5.65;;
34765;SDS011;20984;43.508;1.504;2023-07-29T02:59:06;9.88;;;5.32;;
34765;SDS011;20984;43.508;1.504;2023-07-29T03:01:31;7.80;;;5.18;;
34765;SDS011;20984;43.508;1.504;2023-07-29T03:03:57;5.93;;;5.07;;
34765;SDS011;20984;43.508;1.504;2023-07-29T03:06:23;6.20;;;4.95;;
34765;SDS011;20984;43.508;1.504;2023-07-29T03:08:49;12.25;;;5.93;;
34765;SDS011;20984;43.508;1.504;2023-07-29T03:11:15;8.43;;;5.22;;
34765;SDS011;20984;43.508;1.504;2023-07-29T03:13:41;6.78;;;5.32;;
34765;SDS011;20984;43.508;1.504;2023-07-29T03:18:34;6.63;;;5.22;;
34765;SDS011;20984;43.508;1.504;2023-07-29T03:21:00;9.05;;;5.50;;
34765;SDS011;20984;43.508;1.504;2023-07-29T03:23:27;7.72;;;5.18;;
34765;SDS011;20984;43.508;1.504;2023-07-29T03:25:54;5.30;;;4.70;;
34765;SDS011;20984;43.508;1.504;2023-07-29T03:28:22;6.70;;;5.25;;
34765;SDS011;20984;43.508;1.504;2023-07-29T03:30:50;10.85;;;6.22;;
34765;SDS011;20984;43.508;1.504;2023-07-29T03:33:16;7.35;;;5.40;;
34765;SDS011;20984;43.508;1.504;2023-07-29T03:35:41;5.82;;;4.90;;
34765;SDS011;20984;43.508;1.504;2023-07-29T03:38:09;6.18;;;5.57;;
34765;SDS011;20984;43.508;1.504;2023-07-29T03:40:36;8.45;;;6.28;;
34765;SDS011;20984;43.508;1.504;2023-07-29T03:43:02;5.95;;;5.32;;
34765;SDS011;20984;43.508;1.504;2023-07-29T03:45:28;6.28;;;5.30;;
34765;SDS011;20984;43.508;1.504;2023-07-29T03:47:53;6.00;;;5.40;;
34765;SDS011;20984;43.508;1.504;2023-07-29T03:50:19;5.28;;;4.78;;
34765;SDS011;20984;43.508;1.504;2023-07-29T03:52:45;7.93;;;5.88;;
34765;SDS011;20984;43.508;1.504;2023-07-29T03:55:10;10.00;;;5.68;;
34765;SDS011;20984;43.508;1.504;2023-07-29T03:57:37;7.53;;;6.00;;
34765;SDS011;20984;43.508;1.504;2023-07-29T04:00:02;9.40;;;5.57;;
34765;SDS011;20984;43.508;1.504;2023-07-29T04:02:29;9.30;;;5.85;;
34765;SDS011;20984;43.508;1.504;2023-07-29T04:04:54;6.13;;;5.20;;
34765;SDS011;20984;43.508;1.504;2023-07-29T04:07:20;10.50;;;6.20;;
34765;SDS011;20984;43.508;1.504;2023-07-29T04:09:46;7.82;;;5.85;;
34765;SDS011;20984;43.508;1.504;2023-07-29T04:12:12;8.23;;;5.78;;
34765;SDS011;20984;43.508;1.504;2023-07-29T04:14:37;6.10;;;4.88;;
34765;SDS011;20984;43.508;1.504;2023-07-29T04:17:03;9.55;;;5.75;;
34765;SDS011;20984;43.508;1.504;2023-07-29T04:19:29;7.20;;;5.85;;
34765;SDS011;20984;43.508;1.504;2023-07-29T04:21:55;12.45;;;5.95;;
34765;SDS011;20984;43.508;1.504;2023-07-29T04:24:20;7.90;;;5.95;;
34765;SDS011;20984;43.508;1.504;2023-07-29T04:26:48;8.15;;;5.68;;
34765;SDS011;20984;43.508;1.504;2023-07-29T04:29:14;6.95;;;5.70;;
34765;SDS011;20984;43.508;1.504;2023-07-29T04:31:39;7.47;;;6.00;;
34765;SDS011;20984;43.508;1.504;2023-07-29T04:34:05;6.50;;;5.38;;
34765;SDS011;20984;43.508;1.504;2023-07-29T04:36:31;6.88;;;5.88;;
34765;SDS011;20984;43.508;1.504;2023-07-29T04:38:57;6.90;;;5.63;;
34765;SDS011;20984;43.508;1.504;2023-07-29T04:41:23;7.90;;;6.82;;
34765;SDS011;20984;43.508;1.504;2023-07-29T04:43:48;7.97;;;6.00;;
34765;SDS011;20984;43.508;1.504;2023-07-29T04:46:14;10.38;;;5.95;;
34765;SDS011;20984;43.508;1.504;2023-07-29T04:48:40;7.68;;;6.15;;
34765;SDS011;20984;43.508;1.504;2023-07-29T04:51:06;6.40;;;5.47;;
34765;SDS011;20984;43.508;1.504;2023-07-29T04:53:32;9.77;;;6.72;;
34765;SDS011;20984;43.508;1.504;2023-07-29T04:55:59;9.80;;;5.80;;
34765;SDS011;20984;43.508;1.504;2023-07-29T04:58:26;8.35;;;6.18;;
34765;SDS011;20984;43.508;1.504;2023-07-29T05:00:53;6.78;;;6.07;;
34765;SDS011;20984;43.508;1.504;2023-07-29T05:03:19;10.23;;;6.53;;
34765;SDS011;20984;43.508;1.504;2023-07-29T05:05:45;8.02;;;6.20;;
34765;SDS011;20984;43.508;1.504;2023-07-29T05:08:10;6.80;;;6.10;;
34765;SDS011;20984;43.508;1.504;2023-07-29T05:10:36;8.10;;;5.97;;
34765;SDS011;20984;43.508;1.504;2023-07-29T05:13:02;10.05;;;6.05;;
34765;SDS011;20984;43.508;1.504;2023-07-29T05:15:27;6.30;;;5.45;;
34765;SDS011;20984;43.508;1.504;2023-07-29T05:17:53;6.60;;;5.95;;
34765;SDS011;20984;43.508;1.504;2023-07-29T05:20:19;5.80;;;5.20;;
34765;SDS011;20984;43.508;1.504;2023-07-29T05:22:44;6.60;;;5.45;;
34765;SDS011;20984;43.508;1.504;2023-07-29T05:25:10;6.45;;;5.22;;
34765;SDS011;20984;43.508;1.504;2023-07-29T05:27:35;7.30;;;6.22;;
34765;SDS011;20984;43.508;1.504;2023-07-29T05:30:01;8.88;;;5.50;;
34765;SDS011;20984;43.508;1.504;2023-07-29T05:32:27;8.32;;;5.45;;
34765;SDS011;20984;43.508;1.504;2023-07-29T05:34:53;8.15;;;6.53;;
34765;SDS011;20984;43.508;1.504;2023-07-29T05:37:18;7.22;;;5.10;;
34765;SDS011;20984;43.508;1.504;2023-07-29T05:39:44;7.45;;;5.53;;
34765;SDS011;20984;43.508;1.504;2023-07-29T05:42:10;8.25;;;5.57;;
34765;SDS011;20984;43.508;1.504;2023-07-29T05:44:35;7.03;;;5.32;;
34765;SDS011;20984;43.508;1.504;2023-07-29T05:47:01;7.18;;;5.53;;
34765;SDS011;20984;43.508;1.504;2023-07-29T05:49:27;10.73;;;6.15;;
34765;SDS011;20984;43.508;1.504;2023-07-29T05:51:52;8.77;;;5.20;;
34765;SDS011;20984;43.508;1.504;2023-07-29T05:54:18;6.43;;;5.57;;
34765;SDS011;20984;43.508;1.504;2023-07-29T05:56:44;10.00;;;5.53;;
34765;SDS011;20984;43.508;1.504;2023-07-29T05:59:09;9.20;;;5.55;;
34765;SDS011;20984;43.508;1.504;2023-07-29T06:01:35;12.15;;;5.47;;
34765;SDS011;20984;43.508;1.504;2023-07-29T06:04:01;6.93;;;5.57;;
34765;SDS011;20984;43.508;1.504;2023-07-29T06:06:26;10.23;;;6.65;;
34765;SDS011;20984;43.508;1.504;2023-07-29T06:08:52;8.27;;;6.57;;
34765;SDS011;20984;43.508;1.504;2023-07-29T06:11:18;7.43;;;6.15;;
34765;SDS011;20984;43.508;1.504;2023-07-29T06:13:44;8.35;;;6.15;;
34765;SDS011;20984;43.508;1.504;2023-07-29T06:16:10;7.25;;;6.00;;
34765;SDS011;20984;43.508;1.504;2023-07-29T06:18:36;8.23;;;6.53;;
34765;SDS011;20984;43.508;1.504;2023-07-29T06:21:02;9.90;;;6.00;;
34765;SDS011;20984;43.508;1.504;2023-07-29T06:25:58;11.25;;;7.13;;
34765;SDS011;20984;43.508;1.504;2023-07-29T06:28:25;8.77;;;5.97;;
34765;SDS011;20984;43.508;1.504;2023-07-29T06:30:51;10.65;;;6.30;;
34765;SDS011;20984;43.508;1.504;2023-07-29T06:33:17;9.10;;;7.13;;
34765;SDS011;20984;43.508;1.504;2023-07-29T06:35:42;7.40;;;6.55;;
34765;SDS011;20984;43.508;1.504;2023-07-29T06:38:08;9.82;;;6.55;;
34765;SDS011;20984;43.508;1.504;2023-07-29T06:40:34;7.97;;;6.30;;
34765;SDS011;20984;43.508;1.504;2023-07-29T06:43:00;9.75;;;6.13;;
34765;SDS011;20984;43.508;1.504;2023-07-29T06:45:26;10.30;;;6.90;;
34765;SDS011;20984;43.508;1.504;2023-07-29T06:47:51;7.53;;;6.32;;
34765;SDS011;20984;43.508;1.504;2023-07-29T06:50:17;8.18;;;5.85;;
34765;SDS011;20984;43.508;1.504;2023-07-29T06:52:43;6.95;;;6.03;;
34765;SDS011;20984;43.508;1.504;2023-07-29T06:55:08;9.95;;;6.50;;
34765;SDS011;20984;43.508;1.504;2023-07-29T06:57:34;6.45;;;5.85;;
34765;SDS011;20984;43.508;1.504;2023-07-29T07:00:00;7.68;;;5.97;;
34765;SDS011;20984;43.508;1.504;2023-07-29T07:02:26;10.82;;;6.00;;
34765;SDS011;20984;43.508;1.504;2023-07-29T07:04:51;10.45;;;5.97;;
34765;SDS011;20984;43.508;1.504;2023-07-29T07:07:17;6.10;;;5.50;;
34765;SDS011;20984;43.508;1.504;2023-07-29T07:09:43;8.40;;;6.38;;
34765;SDS011;20984;43.508;1.504;2023-07-29T07:12:08;9.20;;;7.00;;
34765;SDS011;20984;43.508;1.504;2023-07-29T07:14:34;10.20;;;7.03;;
34765;SDS011;20984;43.508;1.504;2023-07-29T07:17:00;8.07;;;6.55;;
34765;SDS011;20984;43.508;1.504;2023-07-29T07:19:25;7.00;;;6.05;;
34765;SDS011;20984;43.508;1.504;2023-07-29T07:21:51;6.88;;;5.93;;
34765;SDS011;20984;43.508;1.504;2023-07-29T07:24:17;10.57;;;6.10;;
34765;SDS011;20984;43.508;1.504;2023-07-29T07:26:42;6.63;;;5.93;;
34765;SDS011;20984;43.508;1.504;2023-07-29T07:29:08;7.57;;;5.82;;
34765;SDS011;20984;43.508;1.504;2023-07-29T07:31:33;7.30;;;6.07;;
34765;SDS011;20984;43.508;1.504;2023-07-29T07:34:00;5.78;;;4.75;;
34765;SDS011;20984;43.508;1.504;2023-07-29T07:36:27;11.30;;;6.30;;
34765;SDS011;20984;43.508;1.504;2023-07-29T07:38:52;6.20;;;5.18;;
34765;SDS011;20984;43.508;1.504;2023-07-29T07:41:18;6.03;;;5.00;;
34765;SDS011;20984;43.508;1.504;2023-07-29T07:43:44;5.28;;;4.78;;
34765;SDS011;20984;43.508;1.504;2023-07-29T07:46:09;6.90;;;5.20;;
34765;SDS011;20984;43.508;1.504;2023-07-29T07:48:35;7.50;;;4.78;;
34765;SDS011;20984;43.508;1.504;2023-07-29T07:51:09;7.50;;;4.93;;
34765;SDS011;20984;43.508;1.504;2023-07-29T07:53:36;8.60;;;4.70;;
34765;SDS011;20984;43.508;1.504;2023-07-29T07:56:01;7.05;;;5.20;;
34765;SDS011;20984;43.508;1.504;2023-07-29T07:58:27;6.35;;;4.78;;
34765;SDS011;20984;43.508;1.504;2023-07-29T08:01:00;8.00;;;4.80;;
34765;SDS011;20984;43.508;1.504;2023-07-29T08:03:29;6.40;;;4.55;;
34765;SDS011;20984;43.508;1.504;2023-07-29T08:05:55;6.35;;;5.00;;
34765;SDS011;20984;43.508;1.504;2023-07-29T08:08:21;7.63;;;5.50;;
34765;SDS011;20984;43.508;1.504;2023-07-29T08:10:47;6.40;;;4.50;;
34765;SDS011;20984;43.508;1.504;2023-07-29T08:13:12;5.38;;;4.68;;
34765;SDS011;20984;43.508;1.504;2023-07-29T08:15:38;6.00;;;4.40;;
34765;SDS011;20984;43.508;1.504;2023-07-29T08:18:04;5.38;;;4.88;;
34765;SDS011;20984;43.508;1.504;2023-07-29T08:20:29;6.05;;;4.95;;
34765;SDS011;20984;43.508;1.504;2023-07-29T08:22:55;7.25;;;4.70;;
34765;SDS011;20984;43.508;1.504;2023-07-29T08:25:20;6.75;;;4.90;;
34765;SDS011;20984;43.508;1.504;2023-07-29T08:27:46;5.95;;;4.93;;
34765;SDS011;20984;43.508;1.504;2023-07-29T08:30:12;6.70;;;4.03;;
34765;SDS011;20984;43.508;1.504;2023-07-29T08:32:37;5.95;;;4.35;;
34765;SDS011;20984;43.508;1.504;2023-07-29T08:35:03;5.60;;;4.68;;
34765;SDS011;20984;43.508;1.504;2023-07-29T08:37:29;7.03;;;4.40;;
34765;SDS011;20984;43.508;1.504;2023-07-29T08:39:56;6.35;;;4.05;;
34765;SDS011;20984;43.508;1.504;2023-07-29T08:42:22;4.45;;;3.30;;
34765;SDS011;20984;43.508;1.504;2023-07-29T08:44:51;8.00;;;3.78;;
34765;SDS011;20984;43.508;1.504;2023-07-29T08:47:19;5.32;;;3.95;;
34765;SDS011;20984;43.508;1.504;2023-07-29T08:49:45;6.85;;;4.13;;
34765;SDS011;20984;43.508;1.504;2023-07-29T08:52:11;3.90;;;3.45;;
34765;SDS011;20984;43.508;1.504;2023-07-29T08:54:38;5.82;;;3.55;;
34765;SDS011;20984;43.508;1.504;2023-07-29T08:57:04;6.80;;;3.60;;
34765;SDS011;20984;43.508;1.504;2023-07-29T08:59:31;6.95;;;3.45;;
34765;SDS011;20984;43.508;1.504;2023-07-29T09:01:58;4.60;;;3.15;;
34765;SDS011;20984;43.508;1.504;2023-07-29T09:04:24;3.88;;;3.05;;
34765;SDS011;20984;43.508;1.504;2023-07-29T09:06:50;4.55;;;3.33;;
34765;SDS011;20984;43.508;1.504;2023-07-29T09:09:16;4.30;;;3.45;;
34765;SDS011;20984;43.508;1.504;2023-07-29T09:11:43;5.13;;;3.35;;
34765;SDS011;20984;43.508;1.504;2023-07-29T09:14:09;7.25;;;3.47;;
34765;SDS011;20984;43.508;1.504;2023-07-29T09:16:35;5.63;;;3.25;;
34765;SDS011;20984;43.508;1.504;2023-07-29T09:19:02;4.78;;;3.40;;
34765;SDS011;20984;43.508;1.504;2023-07-29T09:21:28;6.53;;;3.33;;
34765;SDS011;20984;43.508;1.504;2023-07-29T09:23:54;4.90;;;3.00;;
34765;SDS011;20984;43.508;1.504;2023-07-29T09:26:24;8.05;;;3.10;;
34765;SDS011;20984;43.508;1.504;2023-07-29T09:28:52;5.05;;;3.63;;
34765;SDS011;20984;43.508;1.504;2023-07-29T09:31:23;5.00;;;3.42;;
34765;SDS011;20984;43.508;1.504;2023-07-29T09:33:50;9.20;;;4.97;;
34765;SDS011;20984;43.508;1.504;2023-07-29T09:36:25;4.45;;;3.25;;
34765;SDS011;20984;43.508;1.504;2023-07-29T09:38:54;5.10;;;3.05;;
34765;SDS011;20984;43.508;1.504;2023-07-29T09:41:25;6.22;;;3.17;;
34765;SDS011;20984;43.508;1.504;2023-07-29T09:43:58;4.90;;;3.55;;
34765;SDS011;20984;43.508;1.504;2023-07-29T09:46:31;4.90;;;3.53;;
34765;SDS011;20984;43.508;1.504;2023-07-29T09:49:04;6.05;;;3.25;;
34765;SDS011;20984;43.508;1.504;2023-07-29T09:51:30;7.10;;;3.28;;
34765;SDS011;20984;43.508;1.504;2023-07-29T09:53:56;6.05;;;3.22;;
34765;SDS011;20984;43.508;1.504;2023-07-29T09:56:25;5.03;;;3.30;;
34765;SDS011;20984;43.508;1.504;2023-07-29T09:58:51;8.68;;;3.13;;
34765;SDS011;20984;43.508;1.504;2023-07-29T10:01:17;7.18;;;3.22;;
34765;SDS011;20984;43.508;1.504;2023-07-29T10:03:43;6.97;;;4.10;;
34765;SDS011;20984;43.508;1.504;2023-07-29T10:06:09;4.13;;;2.83;;
34765;SDS011;20984;43.508;1.504;2023-07-29T10:08:36;5.53;;;3.25;;
34765;SDS011;20984;43.508;1.504;2023-07-29T10:11:05;4.82;;;3.30;;
34765;SDS011;20984;43.508;1.504;2023-07-29T10:13:32;4.88;;;3.20;;
34765;SDS011;20984;43.508;1.504;2023-07-29T10:15:58;4.57;;;3.40;;
34765;SDS011;20984;43.508;1.504;2023-07-29T10:18:27;5.00;;;3.30;;
34765;SDS011;20984;43.508;1.504;2023-07-29T10:20:53;4.70;;;2.97;;
34765;SDS011;20984;43.508;1.504;2023-07-29T10:23:21;4.28;;;3.20;;
34765;SDS011;20984;43.508;1.504;2023-07-29T10:25:50;5.63;;;3.20;;
34765;SDS011;20984;43.508;1.504;2023-07-29T10:28:25;4.20;;;2.90;;
34765;SDS011;20984;43.508;1.504;2023-07-29T10:30:53;5.25;;;3.25;;
34765;SDS011;20984;43.508;1.504;2023-07-29T10:33:19;4.28;;;3.10;;
34765;SDS011;20984;43.508;1.504;2023-07-29T10:35:45;5.15;;;3.45;;
34765;SDS011;20984;43.508;1.504;2023-07-29T10:38:11;5.28;;;3.72;;
34765;SDS011;20984;43.508;1.504;2023-07-29T10:40:44;8.23;;;4.50;;
34765;SDS011;20984;43.508;1.504;2023-07-29T10:43:11;6.07;;;3.55;;
34765;SDS011;20984;43.508;1.504;2023-07-29T10:45:38;5.18;;;3.35;;
34765;SDS011;20984;43.508;1.504;2023-07-29T10:48:05;5.78;;;3.53;;
34765;SDS011;20984;43.508;1.504;2023-07-29T10:51:06;4.35;;;3.10;;
34765;SDS011;20984;43.508;1.504;2023-07-29T10:54:03;6.70;;;3.78;;
34765;SDS011;20984;43.508;1.504;2023-07-29T10:56:41;5.72;;;3.42;;
34765;SDS011;20984;43.508;1.504;2023-07-29T11:01:38;4.65;;;3.10;;
34765;SDS011;20984;43.508;1.504;2023-07-29T11:09:39;3.80;;;3.10;;
34765;SDS011;20984;43.508;1.504;2023-07-29T11:12:05;5.35;;;3.38;;
34765;SDS011;20984;43.508;1.504;2023-07-29T11:14:51;7.80;;;3.42;;
34765;SDS011;20984;43.508;1.504;2023-07-29T11:17:17;5.80;;;3.53;;
34765;SDS011;20984;43.508;1.504;2023-07-29T11:19:43;5.57;;;3.22;;
34765;SDS011;20984;43.508;1.504;2023-07-29T11:22:11;6.13;;;3.22;;
34765;SDS011;20984;43.508;1.504;2023-07-29T11:24:37;5.28;;;3.55;;
34765;SDS011;20984;43.508;1.504;2023-07-29T11:27:02;3.30;;;2.65;;
34765;SDS011;20984;43.508;1.504;2023-07-29T11:29:28;5.25;;;3.22;;
34765;SDS011;20984;43.508;1.504;2023-07-29T11:31:54;4.35;;;3.40;;
34765;SDS011;20984;43.508;1.504;2023-07-29T11:34:30;3.63;;;3.05;;
34765;SDS011;20984;43.508;1.504;2023-07-29T11:36:58;4.45;;;3.10;;
34765;SDS011;20984;43.508;1.504;2023-07-29T11:39:24;5.05;;;3.53;;
34765;SDS011;20984;43.508;1.504;2023-07-29T11:41:50;4.88;;;3.20;;
34765;SDS011;20984;43.508;1.504;2023-07-29T11:44:18;5.00;;;3.53;;
34765;SDS011;20984;43.508;1.504;2023-07-29T11:46:44;5.43;;;3.10;;
34765;SDS011;20984;43.508;1.504;2023-07-29T11:49:10;5.43;;;2.90;;
34765;SDS011;20984;43.508;1.504;2023-07-29T11:51:36;4.70;;;2.88;;
34765;SDS011;20984;43.508;1.504;2023-07-29T11:54:02;4.90;;;2.97;;
34765;SDS011;20984;43.508;1.504;2023-07-29T11:56:28;6.57;;;2.70;;
34765;SDS011;20984;43.508;1.504;2023-07-29T11:58:55;5.22;;;3.55;;
34765;SDS011;20984;43.508;1.504;2023-07-29T12:01:21;6.45;;;3.90;;
34765;SDS011;20984;43.508;1.504;2023-07-29T12:03:47;5.38;;;3.45;;
34765;SDS011;20984;43.508;1.504;2023-07-29T12:06:15;6.53;;;3.03;;
34765;SDS011;20984;43.508;1.504;2023-07-29T12:08:41;5.30;;;3.00;;
34765;SDS011;20984;43.508;1.504;2023-07-29T12:11:08;5.93;;;3.20;;
34765;SDS011;20984;43.508;1.504;2023-07-29T12:13:36;5.05;;;2.88;;
34765;SDS011;20984;43.508;1.504;2023-07-29T12:16:02;5.80;;;3.15;;
34765;SDS011;20984;43.508;1.504;2023-07-29T12:18:32;6.55;;;3.03;;
34765;SDS011;20984;43.508;1.504;2023-07-29T12:20:59;6.78;;;3.28;;
34765;SDS011;20984;43.508;1.504;2023-07-29T12:23:25;5.63;;;2.95;;
34765;SDS011;20984;43.508;1.504;2023-07-29T12:25:57;5.18;;;3.25;;
34765;SDS011;20984;43.508;1.504;2023-07-29T12:28:24;5.03;;;2.75;;
34765;SDS011;20984;43.508;1.504;2023-07-29T12:30:53;5.63;;;3.10;;
34765;SDS011;20984;43.508;1.504;2023-07-29T12:33:32;10.80;;;3.13;;
34765;SDS011;20984;43.508;1.504;2023-07-29T12:36:03;5.22;;;3.00;;
34765;SDS011;20984;43.508;1.504;2023-07-29T12:38:29;3.75;;;2.78;;
34765;SDS011;20984;43.508;1.504;2023-07-29T12:40:55;4.68;;;2.67;;
34765;SDS011;20984;43.508;1.504;2023-07-29T12:43:21;5.28;;;3.20;;
34765;SDS011;20984;43.508;1.504;2023-07-29T12:45:50;5.30;;;3.58;;
34765;SDS011;20984;43.508;1.504;2023-07-29T12:48:16;4.47;;;2.92;;
34765;SDS011;20984;43.508;1.504;2023-07-29T12:50:41;4.35;;;2.95;;
34765;SDS011;20984;43.508;1.504;2023-07-29T12:53:08;7.40;;;2.85;;
34765;SDS011;20984;43.508;1.504;2023-07-29T12:55:37;7.78;;;3.15;;
34765;SDS011;20984;43.508;1.504;2023-07-29T12:58:02;5.70;;;3.38;;
34765;SDS011;20984;43.508;1.504;2023-07-29T13:00:28;6.10;;;3.17;;
34765;SDS011;20984;43.508;1.504;2023-07-29T13:02:54;5.15;;;3.28;;
34765;SDS011;20984;43.508;1.504;2023-07-29T13:05:20;3.47;;;2.65;;
34765;SDS011;20984;43.508;1.504;2023-07-29T13:07:46;4.18;;;3.33;;
34765;SDS011;20984;43.508;1.504;2023-07-29T13:10:12;3.55;;;2.65;;
34765;SDS011;20984;43.508;1.504;2023-07-29T13:12:38;7.68;;;2.90;;
34765;SDS011;20984;43.508;1.504;2023-07-29T13:15:04;3.97;;;2.92;;
34765;SDS011;20984;43.508;1.504;2023-07-29T13:17:30;5.30;;;2.83;;
34765;SDS011;20984;43.508;1.504;2023-07-29T13:19:56;4.00;;;2.85;;
34765;SDS011;20984;43.508;1.504;2023-07-29T13:22:22;4.97;;;3.50;;
34765;SDS011;20984;43.508;1.504;2023-07-29T13:24:47;5.88;;;3.47;;
34765;SDS011;20984;43.508;1.504;2023-07-29T13:27:13;4.03;;;3.10;;
34765;SDS011;20984;43.508;1.504;2023-07-29T13:29:39;5.22;;;2.67;;
34765;SDS011;20984;43.508;1.504;2023-07-29T13:32:06;3.47;;;2.55;;
34765;SDS011;20984;43.508;1.504;2023-07-29T13:34:32;4.60;;;2.90;;
34765;SDS011;20984;43.508;1.504;2023-07-29T13:36:59;4.22;;;3.00;;
34765;SDS011;20984;43.508;1.504;2023-07-29T13:39:25;4.35;;;2.85;;
34765;SDS011;20984;43.508;1.504;2023-07-29T13:41:50;8.30;;;3.58;;
34765;SDS011;20984;43.508;1.504;2023-07-29T13:44:16;3.88;;;2.28;;
34765;SDS011;20984;43.508;1.504;2023-07-29T13:46:42;3.75;;;2.72;;
34765;SDS011;20984;43.508;1.504;2023-07-29T13:49:07;6.70;;;2.90;;
34765;SDS011;20984;43.508;1.504;2023-07-29T13:51:33;3.83;;;2.50;;
34765;SDS011;20984;43.508;1.504;2023-07-29T13:53:59;4.55;;;3.13;;
34765;SDS011;20984;43.508;1.504;2023-07-29T13:56:24;7.07;;;3.13;;
34765;SDS011;20984;43.508;1.504;2023-07-29T13:58:50;6.13;;;3.17;;
34765;SDS011;20984;43.508;1.504;2023-07-29T14:01:15;5.50;;;2.72;;
34765;SDS011;20984;43.508;1.504;2023-07-29T14:03:41;5.85;;;3.13;;
34765;SDS011;20984;43.508;1.504;2023-07-29T14:06:07;4.72;;;2.95;;
34765;SDS011;20984;43.508;1.504;2023-07-29T14:08:32;4.20;;;2.80;;
34765;SDS011;20984;43.508;1.504;2023-07-29T14:11:00;4.43;;;2.90;;
34765;SDS011;20984;43.508;1.504;2023-07-29T14:13:25;6.95;;;3.15;;
34765;SDS011;20984;43.508;1.504;2023-07-29T14:15:51;6.90;;;3.58;;
34765;SDS011;20984;43.508;1.504;2023-07-29T14:18:17;4.35;;;2.67;;
34765;SDS011;20984;43.508;1.504;2023-07-29T14:20:42;5.43;;;3.20;;
34765;SDS011;20984;43.508;1.504;2023-07-29T14:23:08;5.10;;;2.58;;
34765;SDS011;20984;43.508;1.504;2023-07-29T14:25:34;4.53;;;3.10;;
34765;SDS011;20984;43.508;1.504;2023-07-29T14:27:59;3.20;;;2.40;;
34765;SDS011;20984;43.508;1.504;2023-07-29T14:30:25;4.68;;;2.80;;
34765;SDS011;20984;43.508;1.504;2023-07-29T14:32:51;5.45;;;3.50;;
34765;SDS011;20984;43.508;1.504;2023-07-29T14:35:16;4.90;;;3.00;;
34765;SDS011;20984;43.508;1.504;2023-07-29T14:37:42;7.22;;;2.42;;
34765;SDS011;20984;43.508;1.504;2023-07-29T14:40:08;6.32;;;3.08;;
34765;SDS011;20984;43.508;1.504;2023-07-29T14:42:33;4.53;;;3.03;;
34765;SDS011;20984;43.508;1.504;2023-07-29T14:44:59;4.65;;;3.30;;
34765;SDS011;20984;43.508;1.504;2023-07-29T14:47:24;4.63;;;2.75;;
34765;SDS011;20984;43.508;1.504;2023-07-29T14:49:50;4.90;;;3.00;;
34765;SDS011;20984;43.508;1.504;2023-07-29T14:52:16;3.47;;;2.63;;
34765;SDS011;20984;43.508;1.504;2023-07-29T14:54:41;4.63;;;2.58;;
34765;SDS011;20984;43.508;1.504;2023-07-29T14:57:07;3.85;;;2.85;;
34765;SDS011;20984;43.508;1.504;2023-07-29T14:59:34;9.57;;;3.45;;
34765;SDS011;20984;43.508;1.504;2023-07-29T15:02:00;5.07;;;3.40;;
34765;SDS011;20984;43.508;1.504;2023-07-29T15:04:25;4.38;;;3.03;;
34765;SDS011;20984;43.508;1.504;2023-07-29T15:06:51;4.30;;;2.92;;